sensor_id;sensor_type;location;lat;lon;timestamp;temperature;humidity
18794;DHT22;29610;49.022;12.114;2022-12-17T00:01:00;-2.70;99.90
18794;DHT22;29610;49.022;12.114;2022-12-17T00:03:47;-2.60;99.90
18794;DHT22;29610;49.022;12.114;2022-12-17T00:06:34;-2.60;99.90
18794;DHT22;29610;49.022;12.114;2022-12-17T00:09:22;-2.70;99.90
18794;DHT22;29610;49.022;12.114;2022-12-17T00:12:14;-2.70;99.90
18794;DHT22;29610;49.022;12.114;2022-12-17T00:14:59;-2.70;99.90
18794;DHT22;29610;49.022;12.114;2022-12-17T00:17:46;-2.70;99.90
18794;DHT22;29610;49.022;12.114;2022-12-17T00:20:32;-2.60;99.90
18794;DHT22;29610;49.022;12.114;2022-12-17T00:23:27;-2.80;99.90
18794;DHT22;29610;49.022;12.114;2022-12-17T00:26:13;-2.90;99.90
18794;DHT22;29610;49.022;12.114;2022-12-17T00:28:59;-2.90;99.90
18794;DHT22;29610;49.022;12.114;2022-12-17T00:31:46;-2.90;99.90
18794;DHT22;29610;49.022;12.114;2022-12-17T00:34:32;-2.80;99.90
18794;DHT22;29610;49.022;12.114;2022-12-17T00:37:18;-2.90;99.90
18794;DHT22;29610;49.022;12.114;2022-12-17T00:40:22;-2.90;99.90
18794;DHT22;29610;49.022;12.114;2022-12-17T00:43:10;-2.90;99.90
18794;DHT22;29610;49.022;12.114;2022-12-17T00:46:00;-2.90;99.90
18794;DHT22;29610;49.022;12.114;2022-12-17T00:48:47;-2.90;99.90
18794;DHT22;29610;49.022;12.114;2022-12-17T00:51:33;-2.90;99.90
18794;DHT22;29610;49.022;12.114;2022-12-17T00:54:20;-2.90;99.90
18794;DHT22;29610;49.022;12.114;2022-12-17T00:57:07;-2.90;99.90
18794;DHT22;29610;49.022;12.114;2022-12-17T00:59:53;-3.00;99.90
18794;DHT22;29610;49.022;12.114;2022-12-17T01:02:39;-2.90;99.90
18794;DHT22;29610;49.022;12.114;2022-12-17T01:05:26;-2.90;99.90
18794;DHT22;29610;49.022;12.114;2022-12-17T01:08:13;-3.00;99.90
18794;DHT22;29610;49.022;12.114;2022-12-17T01:11:00;-3.00;99.90
18794;DHT22;29610;49.022;12.114;2022-12-17T01:13:49;-3.00;99.90
18794;DHT22;29610;49.022;12.114;2022-12-17T01:16:35;-3.00;99.90
18794;DHT22;29610;49.022;12.114;2022-12-17T01:19:22;-3.00;99.90
18794;DHT22;29610;49.022;12.114;2022-12-17T01:22:09;-3.10;99.90
18794;DHT22;29610;49.022;12.114;2022-12-17T01:24:55;-3.10;99.90
18794;DHT22;29610;49.022;12.114;2022-12-17T01:27:47;-3.10;99.90
18794;DHT22;29610;49.022;12.114;2022-12-17T01:30:36;-3.10;99.90
18794;DHT22;29610;49.022;12.114;2022-12-17T01:33:23;-3.10;99.90
18794;DHT22;29610;49.022;12.114;2022-12-17T01:36:09;-3.10;99.90
18794;DHT22;29610;49.022;12.114;2022-12-17T01:38:55;-3.10;99.90
18794;DHT22;29610;49.022;12.114;2022-12-17T01:41:41;-2.90;99.90
18794;DHT22;29610;49.022;12.114;2022-12-17T01:44:45;-3.10;99.90
18794;DHT22;29610;49.022;12.114;2022-12-17T01:47:39;-3.10;99.90
18794;DHT22;29610;49.022;12.114;2022-12-17T01:50:33;-3.10;99.90
18794;DHT22;29610;49.022;12.114;2022-12-17T01:53:24;-3.00;99.90
18794;DHT22;29610;49.022;12.114;2022-12-17T01:56:16;-3.00;99.90
18794;DHT22;29610;49.022;12.114;2022-12-17T01:59:03;-3.00;99.90
18794;DHT22;29610;49.022;12.114;2022-12-17T02:01:52;-3.00;99.90
18794;DHT22;29610;49.022;12.114;2022-12-17T02:04:40;-3.00;99.90
18794;DHT22;29610;49.022;12.114;2022-12-17T02:07:37;-3.00;99.90
18794;DHT22;29610;49.022;12.114;2022-12-17T02:10:39;-3.10;99.90
18794;DHT22;29610;49.022;12.114;2022-12-17T02:13:34;-3.10;99.90
18794;DHT22;29610;49.022;12.114;2022-12-17T02:16:30;-3.10;99.90
18794;DHT22;29610;49.022;12.114;2022-12-17T02:19:30;-3.10;99.90
18794;DHT22;29610;49.022;12.114;2022-12-17T02:22:33;-3.10;99.90
18794;DHT22;29610;49.022;12.114;2022-12-17T02:25:38;-3.10;99.90
18794;DHT22;29610;49.022;12.114;2022-12-17T02:28:31;-3.10;99.90
18794;DHT22;29610;49.022;12.114;2022-12-17T02:31:21;-3.10;99.90
18794;DHT22;29610;49.022;12.114;2022-12-17T02:34:09;-3.10;99.90
18794;DHT22;29610;49.022;12.114;2022-12-17T02:36:55;-3.10;99.90
18794;DHT22;29610;49.022;12.114;2022-12-17T02:39:41;-3.10;99.90
18794;DHT22;29610;49.022;12.114;2022-12-17T02:42:30;-3.20;99.90
18794;DHT22;29610;49.022;12.114;2022-12-17T02:45:19;-3.20;99.90
18794;DHT22;29610;49.022;12.114;2022-12-17T02:48:06;-3.20;99.90
18794;DHT22;29610;49.022;12.114;2022-12-17T02:50:55;-3.20;99.90
18794;DHT22;29610;49.022;12.114;2022-12-17T02:53:43;-3.20;99.90
18794;DHT22;29610;49.022;12.114;2022-12-17T02:56:31;-3.20;99.90
18794;DHT22;29610;49.022;12.114;2022-12-17T02:59:17;-3.20;99.90
18794;DHT22;29610;49.022;12.114;2022-12-17T03:02:12;-3.20;99.90
18794;DHT22;29610;49.022;12.114;2022-12-17T03:04:58;-3.20;99.90
18794;DHT22;29610;49.022;12.114;2022-12-17T03:08:04;-3.20;99.90
18794;DHT22;29610;49.022;12.114;2022-12-17T03:10:50;-3.20;99.90
18794;DHT22;29610;49.022;12.114;2022-12-17T03:13:37;-3.20;99.90
18794;DHT22;29610;49.022;12.114;2022-12-17T03:16:26;-3.20;99.90
18794;DHT22;29610;49.022;12.114;2022-12-17T03:19:13;-3.20;99.90
18794;DHT22;29610;49.022;12.114;2022-12-17T03:22:02;-3.20;99.90
18794;DHT22;29610;49.022;12.114;2022-12-17T03:24:48;-3.20;99.90
18794;DHT22;29610;49.022;12.114;2022-12-17T03:27:34;-3.20;99.90
18794;DHT22;29610;49.022;12.114;2022-12-17T03:30:20;-3.20;99.90
18794;DHT22;29610;49.022;12.114;2022-12-17T03:33:13;-3.20;99.90
18794;DHT22;29610;49.022;12.114;2022-12-17T03:36:01;-3.20;99.90
18794;DHT22;29610;49.022;12.114;2022-12-17T03:38:47;-3.20;99.90
18794;DHT22;29610;49.022;12.114;2022-12-17T03:41:33;-3.20;99.90
18794;DHT22;29610;49.022;12.114;2022-12-17T03:44:20;-3.20;99.90
18794;DHT22;29610;49.022;12.114;2022-12-17T03:47:05;-3.30;99.90
18794;DHT22;29610;49.022;12.114;2022-12-17T03:49:54;-3.30;99.90
18794;DHT22;29610;49.022;12.114;2022-12-17T03:52:42;-3.30;99.90
18794;DHT22;29610;49.022;12.114;2022-12-17T03:55:28;-3.30;99.90
18794;DHT22;29610;49.022;12.114;2022-12-17T03:58:14;-3.40;99.90
18794;DHT22;29610;49.022;12.114;2022-12-17T04:01:00;-3.40;99.90
18794;DHT22;29610;49.022;12.114;2022-12-17T04:03:46;-3.40;99.90
18794;DHT22;29610;49.022;12.114;2022-12-17T04:06:32;-3.50;99.90
18794;DHT22;29610;49.022;12.114;2022-12-17T04:09:20;-3.50;99.90
18794;DHT22;29610;49.022;12.114;2022-12-17T04:12:06;-3.50;99.90
18794;DHT22;29610;49.022;12.114;2022-12-17T04:14:52;-3.50;99.90
18794;DHT22;29610;49.022;12.114;2022-12-17T04:17:37;-3.50;99.90
18794;DHT22;29610;49.022;12.114;2022-12-17T04:20:23;-3.60;99.90
18794;DHT22;29610;49.022;12.114;2022-12-17T04:23:09;-3.60;99.90
18794;DHT22;29610;49.022;12.114;2022-12-17T04:25:56;-3.60;99.90
18794;DHT22;29610;49.022;12.114;2022-12-17T04:28:42;-3.60;99.90
18794;DHT22;29610;49.022;12.114;2022-12-17T04:31:28;-3.60;99.90
18794;DHT22;29610;49.022;12.114;2022-12-17T04:34:14;-3.60;99.90
18794;DHT22;29610;49.022;12.114;2022-12-17T04:37:03;-3.60;99.90
18794;DHT22;29610;49.022;12.114;2022-12-17T04:39:49;-3.50;99.90
18794;DHT22;29610;49.022;12.114;2022-12-17T04:42:36;-3.50;99.90
18794;DHT22;29610;49.022;12.114;2022-12-17T04:45:19;-3.50;99.90
18794;DHT22;29610;49.022;12.114;2022-12-17T04:48:06;-3.40;99.90
18794;DHT22;29610;49.022;12.114;2022-12-17T04:50:53;-3.40;99.90
18794;DHT22;29610;49.022;12.114;2022-12-17T04:53:39;-3.40;99.90
18794;DHT22;29610;49.022;12.114;2022-12-17T04:56:26;-3.40;99.90
18794;DHT22;29610;49.022;12.114;2022-12-17T04:59:19;-3.30;99.90
18794;DHT22;29610;49.022;12.114;2022-12-17T05:02:05;-3.30;99.90
18794;DHT22;29610;49.022;12.114;2022-12-17T05:04:51;-3.30;99.90
18794;DHT22;29610;49.022;12.114;2022-12-17T05:07:37;-3.30;99.90
18794;DHT22;29610;49.022;12.114;2022-12-17T05:10:23;-3.40;99.90
18794;DHT22;29610;49.022;12.114;2022-12-17T05:13:09;-3.40;99.90
18794;DHT22;29610;49.022;12.114;2022-12-17T05:15:57;-3.40;99.90
18794;DHT22;29610;49.022;12.114;2022-12-17T05:18:46;-3.40;99.90
18794;DHT22;29610;49.022;12.114;2022-12-17T05:21:32;-3.40;99.90
18794;DHT22;29610;49.022;12.114;2022-12-17T05:24:21;-3.50;99.90
18794;DHT22;29610;49.022;12.114;2022-12-17T05:27:07;-3.40;99.90
18794;DHT22;29610;49.022;12.114;2022-12-17T05:29:55;-3.40;99.90
18794;DHT22;29610;49.022;12.114;2022-12-17T05:32:43;-4.20;99.90
18794;DHT22;29610;49.022;12.114;2022-12-17T05:35:29;-3.40;99.90
18794;DHT22;29610;49.022;12.114;2022-12-17T05:38:15;-3.50;99.90
18794;DHT22;29610;49.022;12.114;2022-12-17T05:41:01;-3.50;99.90
18794;DHT22;29610;49.022;12.114;2022-12-17T05:43:47;-3.50;99.90
18794;DHT22;29610;49.022;12.114;2022-12-17T05:46:33;-3.50;99.90
18794;DHT22;29610;49.022;12.114;2022-12-17T05:49:21;-3.60;99.90
18794;DHT22;29610;49.022;12.114;2022-12-17T05:52:07;-3.60;99.90
18794;DHT22;29610;49.022;12.114;2022-12-17T05:54:53;-3.60;99.90
18794;DHT22;29610;49.022;12.114;2022-12-17T05:57:40;-3.60;99.90
18794;DHT22;29610;49.022;12.114;2022-12-17T06:00:26;-3.50;99.90
18794;DHT22;29610;49.022;12.114;2022-12-17T06:03:12;-3.60;99.90
18794;DHT22;29610;49.022;12.114;2022-12-17T06:06:01;-3.60;99.90
18794;DHT22;29610;49.022;12.114;2022-12-17T06:08:48;-3.60;99.90
18794;DHT22;29610;49.022;12.114;2022-12-17T06:11:34;-3.50;99.90
18794;DHT22;29610;49.022;12.114;2022-12-17T06:14:28;-3.60;99.90
18794;DHT22;29610;49.022;12.114;2022-12-17T06:17:14;-3.50;99.90
18794;DHT22;29610;49.022;12.114;2022-12-17T06:20:00;-3.60;99.90
18794;DHT22;29610;49.022;12.114;2022-12-17T06:22:58;-3.60;99.90
18794;DHT22;29610;49.022;12.114;2022-12-17T06:25:59;-3.30;99.90
18794;DHT22;29610;49.022;12.114;2022-12-17T06:28:45;-3.60;99.90
18794;DHT22;29610;49.022;12.114;2022-12-17T06:31:34;-3.70;99.90
18794;DHT22;29610;49.022;12.114;2022-12-17T06:34:21;-3.70;99.90
18794;DHT22;29610;49.022;12.114;2022-12-17T06:37:06;-3.70;99.90
18794;DHT22;29610;49.022;12.114;2022-12-17T06:39:56;-3.70;99.90
18794;DHT22;29610;49.022;12.114;2022-12-17T06:42:51;-3.70;99.90
18794;DHT22;29610;49.022;12.114;2022-12-17T06:45:38;-3.70;99.90
18794;DHT22;29610;49.022;12.114;2022-12-17T06:48:39;-3.80;99.90
18794;DHT22;29610;49.022;12.114;2022-12-17T06:51:25;-3.70;99.90
18794;DHT22;29610;49.022;12.114;2022-12-17T06:54:11;-3.90;99.90
18794;DHT22;29610;49.022;12.114;2022-12-17T06:56:58;-4.00;99.90
18794;DHT22;29610;49.022;12.114;2022-12-17T06:59:44;-4.00;99.90
18794;DHT22;29610;49.022;12.114;2022-12-17T07:02:31;-4.10;99.90
18794;DHT22;29610;49.022;12.114;2022-12-17T07:05:17;-4.20;99.90
18794;DHT22;29610;49.022;12.114;2022-12-17T07:08:04;-4.20;99.90
18794;DHT22;29610;49.022;12.114;2022-12-17T07:10:50;-4.20;99.90
18794;DHT22;29610;49.022;12.114;2022-12-17T07:13:37;-4.30;99.90
18794;DHT22;29610;49.022;12.114;2022-12-17T07:16:23;-4.40;99.90
18794;DHT22;29610;49.022;12.114;2022-12-17T07:19:09;-4.40;99.90
18794;DHT22;29610;49.022;12.114;2022-12-17T07:21:56;-4.50;99.90
18794;DHT22;29610;49.022;12.114;2022-12-17T07:24:42;-4.60;99.90
18794;DHT22;29610;49.022;12.114;2022-12-17T07:27:33;-4.80;99.90
18794;DHT22;29610;49.022;12.114;2022-12-17T07:30:21;-4.90;99.90
18794;DHT22;29610;49.022;12.114;2022-12-17T07:33:09;-5.10;99.90
18794;DHT22;29610;49.022;12.114;2022-12-17T07:35:55;-5.10;99.90
18794;DHT22;29610;49.022;12.114;2022-12-17T07:38:41;-5.10;99.90
18794;DHT22;29610;49.022;12.114;2022-12-17T07:41:27;-5.10;99.90
18794;DHT22;29610;49.022;12.114;2022-12-17T07:44:13;-5.10;99.90
18794;DHT22;29610;49.022;12.114;2022-12-17T07:47:01;-5.20;99.90
18794;DHT22;29610;49.022;12.114;2022-12-17T07:49:48;-5.20;99.90
18794;DHT22;29610;49.022;12.114;2022-12-17T07:52:34;-5.30;99.90
18794;DHT22;29610;49.022;12.114;2022-12-17T07:55:20;-5.30;99.90
18794;DHT22;29610;49.022;12.114;2022-12-17T07:58:09;-5.30;99.90
18794;DHT22;29610;49.022;12.114;2022-12-17T08:00:58;-5.30;99.90
18794;DHT22;29610;49.022;12.114;2022-12-17T08:03:47;-5.30;99.90
18794;DHT22;29610;49.022;12.114;2022-12-17T08:06:33;-5.30;99.90
18794;DHT22;29610;49.022;12.114;2022-12-17T08:09:27;-5.40;99.90
18794;DHT22;29610;49.022;12.114;2022-12-17T08:12:14;-5.50;99.90
18794;DHT22;29610;49.022;12.114;2022-12-17T08:15:00;-5.30;99.90
18794;DHT22;29610;49.022;12.114;2022-12-17T08:17:46;-5.30;99.90
18794;DHT22;29610;49.022;12.114;2022-12-17T08:20:34;-5.10;99.90
18794;DHT22;29610;49.022;12.114;2022-12-17T08:23:20;-5.00;99.90
18794;DHT22;29610;49.022;12.114;2022-12-17T08:26:06;-4.80;99.90
18794;DHT22;29610;49.022;12.114;2022-12-17T08:28:52;-4.60;99.90
18794;DHT22;29610;49.022;12.114;2022-12-17T08:31:38;-4.40;99.90
18794;DHT22;29610;49.022;12.114;2022-12-17T08:34:24;-4.20;99.90
18794;DHT22;29610;49.022;12.114;2022-12-17T08:37:12;-4.00;99.90
18794;DHT22;29610;49.022;12.114;2022-12-17T08:39:58;-3.80;99.90
18794;DHT22;29610;49.022;12.114;2022-12-17T08:42:45;-3.80;99.90
18794;DHT22;29610;49.022;12.114;2022-12-17T08:45:45;-3.60;99.90
18794;DHT22;29610;49.022;12.114;2022-12-17T08:48:32;-3.60;99.90
18794;DHT22;29610;49.022;12.114;2022-12-17T08:51:19;-3.70;99.90
18794;DHT22;29610;49.022;12.114;2022-12-17T08:54:07;-3.70;99.90
18794;DHT22;29610;49.022;12.114;2022-12-17T08:56:54;-3.70;99.90
18794;DHT22;29610;49.022;12.114;2022-12-17T08:59:57;-3.50;99.90
18794;DHT22;29610;49.022;12.114;2022-12-17T09:02:44;-3.60;99.90
18794;DHT22;29610;49.022;12.114;2022-12-17T09:05:30;-3.50;99.90
18794;DHT22;29610;49.022;12.114;2022-12-17T09:08:17;-3.40;99.90
18794;DHT22;29610;49.022;12.114;2022-12-17T09:11:04;-3.20;99.90
18794;DHT22;29610;49.022;12.114;2022-12-17T09:13:50;-3.00;99.90
18794;DHT22;29610;49.022;12.114;2022-12-17T09:16:37;-3.00;99.90
18794;DHT22;29610;49.022;12.114;2022-12-17T09:19:23;-3.00;99.90
18794;DHT22;29610;49.022;12.114;2022-12-17T09:22:09;-3.10;99.90
18794;DHT22;29610;49.022;12.114;2022-12-17T09:24:56;-3.20;99.90
18794;DHT22;29610;49.022;12.114;2022-12-17T09:27:44;-3.50;99.90
18794;DHT22;29610;49.022;12.114;2022-12-17T09:30:30;-3.50;99.90
18794;DHT22;29610;49.022;12.114;2022-12-17T09:33:17;-3.50;99.90
18794;DHT22;29610;49.022;12.114;2022-12-17T09:36:05;-3.50;99.90
18794;DHT22;29610;49.022;12.114;2022-12-17T09:38:52;-3.50;99.90
18794;DHT22;29610;49.022;12.114;2022-12-17T09:41:44;-3.40;99.90
18794;DHT22;29610;49.022;12.114;2022-12-17T09:44:41;-3.30;99.90
18794;DHT22;29610;49.022;12.114;2022-12-17T09:47:40;-3.30;99.90
18794;DHT22;29610;49.022;12.114;2022-12-17T09:50:33;-3.20;99.90
18794;DHT22;29610;49.022;12.114;2022-12-17T09:53:23;-3.20;99.90
18794;DHT22;29610;49.022;12.114;2022-12-17T09:56:20;-3.10;99.90
18794;DHT22;29610;49.022;12.114;2022-12-17T09:59:15;-3.00;99.90
18794;DHT22;29610;49.022;12.114;2022-12-17T10:02:12;-2.90;99.90
18794;DHT22;29610;49.022;12.114;2022-12-17T10:05:06;-3.00;99.80
18794;DHT22;29610;49.022;12.114;2022-12-17T10:07:58;-2.90;99.80
18794;DHT22;29610;49.022;12.114;2022-12-17T10:10:45;-2.90;99.70
18794;DHT22;29610;49.022;12.114;2022-12-17T10:13:40;-2.80;99.70
18794;DHT22;29610;49.022;12.114;2022-12-17T10:16:28;-2.80;99.70
18794;DHT22;29610;49.022;12.114;2022-12-17T10:19:24;-2.90;99.80
18794;DHT22;29610;49.022;12.114;2022-12-17T10:22:16;-2.80;99.70
18794;DHT22;29610;49.022;12.114;2022-12-17T10:25:08;-2.70;99.60
18794;DHT22;29610;49.022;12.114;2022-12-17T10:28:01;-2.60;99.50
18794;DHT22;29610;49.022;12.114;2022-12-17T10:30:50;-2.60;99.60
18794;DHT22;29610;49.022;12.114;2022-12-17T10:33:38;-2.40;99.30
18794;DHT22;29610;49.022;12.114;2022-12-17T10:36:27;-2.50;99.10
18794;DHT22;29610;49.022;12.114;2022-12-17T10:39:15;-2.40;99.20
18794;DHT22;29610;49.022;12.114;2022-12-17T10:42:16;-2.30;99.20
18794;DHT22;29610;49.022;12.114;2022-12-17T10:45:20;-2.30;99.00
18794;DHT22;29610;49.022;12.114;2022-12-17T10:48:18;-2.30;99.10
18794;DHT22;29610;49.022;12.114;2022-12-17T10:51:18;-2.20;99.10
18794;DHT22;29610;49.022;12.114;2022-12-17T10:54:19;-2.10;98.90
18794;DHT22;29610;49.022;12.114;2022-12-17T10:57:23;-1.90;98.90
18794;DHT22;29610;49.022;12.114;2022-12-17T11:00:26;-1.90;98.60
18794;DHT22;29610;49.022;12.114;2022-12-17T11:03:29;-1.80;98.40
18794;DHT22;29610;49.022;12.114;2022-12-17T11:06:23;-1.70;98.50
18794;DHT22;29610;49.022;12.114;2022-12-17T11:09:31;-1.60;98.30
18794;DHT22;29610;49.022;12.114;2022-12-17T11:12:26;-1.40;98.50
18794;DHT22;29610;49.022;12.114;2022-12-17T11:15:20;-1.30;98.10
18794;DHT22;29610;49.022;12.114;2022-12-17T11:18:15;-1.20;98.00
18794;DHT22;29610;49.022;12.114;2022-12-17T11:21:07;-1.10;98.00
18794;DHT22;29610;49.022;12.114;2022-12-17T11:24:00;-0.90;97.80
18794;DHT22;29610;49.022;12.114;2022-12-17T11:26:52;-0.90;97.80
18794;DHT22;29610;49.022;12.114;2022-12-17T11:29:41;-0.70;97.60
18794;DHT22;29610;49.022;12.114;2022-12-17T11:32:46;-0.60;97.00
18794;DHT22;29610;49.022;12.114;2022-12-17T11:35:48;-0.50;97.00
18794;DHT22;29610;49.022;12.114;2022-12-17T11:38:45;-0.50;96.90
18794;DHT22;29610;49.022;12.114;2022-12-17T11:41:48;-0.60;96.70
18794;DHT22;29610;49.022;12.114;2022-12-17T11:45:00;-0.70;96.90
18794;DHT22;29610;49.022;12.114;2022-12-17T11:47:58;-0.70;96.70
18794;DHT22;29610;49.022;12.114;2022-12-17T11:50:53;-0.60;96.90
18794;DHT22;29610;49.022;12.114;2022-12-17T11:53:55;-0.70;97.20
18794;DHT22;29610;49.022;12.114;2022-12-17T11:56:54;-0.40;97.20
18794;DHT22;29610;49.022;12.114;2022-12-17T11:59:57;-0.20;96.70
18794;DHT22;29610;49.022;12.114;2022-12-17T12:02:54;0.10;96.50
18794;DHT22;29610;49.022;12.114;2022-12-17T12:05:56;0.20;95.90
18794;DHT22;29610;49.022;12.114;2022-12-17T12:08:58;0.20;95.70
18794;DHT22;29610;49.022;12.114;2022-12-17T12:11:55;0.00;95.80
18794;DHT22;29610;49.022;12.114;2022-12-17T12:14:59;0.10;95.90
18794;DHT22;29610;49.022;12.114;2022-12-17T12:17:59;0.10;95.70
18794;DHT22;29610;49.022;12.114;2022-12-17T12:21:06;0.30;95.80
18794;DHT22;29610;49.022;12.114;2022-12-17T12:24:10;0.40;95.50
18794;DHT22;29610;49.022;12.114;2022-12-17T12:27:17;0.50;95.00
18794;DHT22;29610;49.022;12.114;2022-12-17T12:30:15;0.40;95.10
18794;DHT22;29610;49.022;12.114;2022-12-17T12:33:15;1.00;95.80
18794;DHT22;29610;49.022;12.114;2022-12-17T12:36:10;0.40;95.50
18794;DHT22;29610;49.022;12.114;2022-12-17T12:39:00;0.20;95.40
18794;DHT22;29610;49.022;12.114;2022-12-17T12:41:50;0.50;95.80
18794;DHT22;29610;49.022;12.114;2022-12-17T12:44:50;0.20;95.70
18794;DHT22;29610;49.022;12.114;2022-12-17T12:47:49;0.10;95.60
18794;DHT22;29610;49.022;12.114;2022-12-17T12:50:45;0.20;95.80
18794;DHT22;29610;49.022;12.114;2022-12-17T12:53:56;0.40;95.60
18794;DHT22;29610;49.022;12.114;2022-12-17T12:56:45;0.20;95.50
18794;DHT22;29610;49.022;12.114;2022-12-17T12:59:33;0.30;95.90
18794;DHT22;29610;49.022;12.114;2022-12-17T13:02:27;0.30;95.70
18794;DHT22;29610;49.022;12.114;2022-12-17T13:05:32;0.40;95.90
18794;DHT22;29610;49.022;12.114;2022-12-17T13:08:19;1.20;95.80
18794;DHT22;29610;49.022;12.114;2022-12-17T13:10:51;1.00;95.90
18794;DHT22;29610;49.022;12.114;2022-12-17T13:13:33;0.70;95.50
18794;DHT22;29610;49.022;12.114;2022-12-17T13:16:25;0.70;95.20
18794;DHT22;29610;49.022;12.114;2022-12-17T13:19:03;0.80;95.60
18794;DHT22;29610;49.022;12.114;2022-12-17T13:21:44;0.80;95.30
18794;DHT22;29610;49.022;12.114;2022-12-17T13:24:22;0.80;95.30
18794;DHT22;29610;49.022;12.114;2022-12-17T13:26:53;0.40;95.80
18794;DHT22;29610;49.022;12.114;2022-12-17T13:29:26;0.30;95.80
18794;DHT22;29610;49.022;12.114;2022-12-17T13:32:07;0.40;96.20
18794;DHT22;29610;49.022;12.114;2022-12-17T13:35:03;0.30;95.90
18794;DHT22;29610;49.022;12.114;2022-12-17T13:37:49;0.20;95.90
18794;DHT22;29610;49.022;12.114;2022-12-17T13:40:35;1.50;96.70
18794;DHT22;29610;49.022;12.114;2022-12-17T13:43:15;0.50;96.60
18794;DHT22;29610;49.022;12.114;2022-12-17T13:45:46;-0.10;96.50
18794;DHT22;29610;49.022;12.114;2022-12-17T13:48:20;-0.30;96.60
18794;DHT22;29610;49.022;12.114;2022-12-17T13:50:56;-0.40;96.70
18794;DHT22;29610;49.022;12.114;2022-12-17T13:53:27;-0.50;97.10
18794;DHT22;29610;49.022;12.114;2022-12-17T13:56:00;-0.60;97.30
18794;DHT22;29610;49.022;12.114;2022-12-17T13:58:31;-0.50;97.40
18794;DHT22;29610;49.022;12.114;2022-12-17T14:01:05;-0.70;97.50
18794;DHT22;29610;49.022;12.114;2022-12-17T14:03:43;-0.80;97.60
18794;DHT22;29610;49.022;12.114;2022-12-17T14:06:36;-0.80;97.70
18794;DHT22;29610;49.022;12.114;2022-12-17T14:09:06;-0.90;97.80
18794;DHT22;29610;49.022;12.114;2022-12-17T14:11:36;-0.90;97.90
18794;DHT22;29610;49.022;12.114;2022-12-17T14:14:27;0.40;98.60
18794;DHT22;29610;49.022;12.114;2022-12-17T14:16:59;-1.10;98.20
18794;DHT22;29610;49.022;12.114;2022-12-17T14:19:29;-1.10;98.30
18794;DHT22;29610;49.022;12.114;2022-12-17T14:22:02;-1.20;98.40
18794;DHT22;29610;49.022;12.114;2022-12-17T14:24:31;-1.10;98.60
18794;DHT22;29610;49.022;12.114;2022-12-17T14:27:00;-1.30;98.70
18794;DHT22;29610;49.022;12.114;2022-12-17T14:29:30;-1.30;98.80
18794;DHT22;29610;49.022;12.114;2022-12-17T14:32:02;-1.40;98.90
18794;DHT22;29610;49.022;12.114;2022-12-17T14:34:48;-1.50;99.00
18794;DHT22;29610;49.022;12.114;2022-12-17T14:37:25;-1.60;99.00
18794;DHT22;29610;49.022;12.114;2022-12-17T14:39:59;-1.60;99.20
18794;DHT22;29610;49.022;12.114;2022-12-17T14:42:34;-1.60;99.20
18794;DHT22;29610;49.022;12.114;2022-12-17T14:45:06;-1.70;99.30
18794;DHT22;29610;49.022;12.114;2022-12-17T14:47:54;-1.80;99.30
18794;DHT22;29610;49.022;12.114;2022-12-17T14:50:28;-1.90;99.40
18794;DHT22;29610;49.022;12.114;2022-12-17T14:53:02;-2.00;99.50
18794;DHT22;29610;49.022;12.114;2022-12-17T14:55:35;-2.00;99.60
18794;DHT22;29610;49.022;12.114;2022-12-17T14:58:17;-2.10;99.70
18794;DHT22;29610;49.022;12.114;2022-12-17T15:00:51;-2.20;99.90
18794;DHT22;29610;49.022;12.114;2022-12-17T15:03:25;-2.00;99.90
18794;DHT22;29610;49.022;12.114;2022-12-17T15:05:57;-2.70;99.80
18794;DHT22;29610;49.022;12.114;2022-12-17T15:08:32;-3.00;99.90
18794;DHT22;29610;49.022;12.114;2022-12-17T15:11:03;-3.10;99.90
18794;DHT22;29610;49.022;12.114;2022-12-17T15:13:32;-3.10;99.90
18794;DHT22;29610;49.022;12.114;2022-12-17T15:16:01;-3.10;99.90
18794;DHT22;29610;49.022;12.114;2022-12-17T15:18:30;-3.20;99.90
18794;DHT22;29610;49.022;12.114;2022-12-17T15:20:59;-3.30;99.90
18794;DHT22;29610;49.022;12.114;2022-12-17T15:23:31;-3.40;99.90
18794;DHT22;29610;49.022;12.114;2022-12-17T15:25:59;-3.40;99.90
18794;DHT22;29610;49.022;12.114;2022-12-17T15:28:28;-3.40;99.90
18794;DHT22;29610;49.022;12.114;2022-12-17T15:30:57;-3.50;99.90
18794;DHT22;29610;49.022;12.114;2022-12-17T15:33:26;-3.50;99.90
18794;DHT22;29610;49.022;12.114;2022-12-17T15:35:54;-3.30;99.90
18794;DHT22;29610;49.022;12.114;2022-12-17T15:38:25;-3.60;99.90
18794;DHT22;29610;49.022;12.114;2022-12-17T15:40:55;-3.70;99.90
18794;DHT22;29610;49.022;12.114;2022-12-17T15:43:26;-3.80;99.90
18794;DHT22;29610;49.022;12.114;2022-12-17T15:45:59;-3.90;99.90
18794;DHT22;29610;49.022;12.114;2022-12-17T15:48:29;-4.00;99.90
18794;DHT22;29610;49.022;12.114;2022-12-17T15:50:57;-4.00;99.90
18794;DHT22;29610;49.022;12.114;2022-12-17T15:53:27;-4.10;99.90
18794;DHT22;29610;49.022;12.114;2022-12-17T15:56:00;-4.10;99.90
18794;DHT22;29610;49.022;12.114;2022-12-17T15:58:29;-4.20;99.90
18794;DHT22;29610;49.022;12.114;2022-12-17T16:00:59;-4.30;99.90
18794;DHT22;29610;49.022;12.114;2022-12-17T16:03:31;-4.30;99.90
18794;DHT22;29610;49.022;12.114;2022-12-17T16:06:04;-4.30;99.90
18794;DHT22;29610;49.022;12.114;2022-12-17T16:08:36;-4.30;99.90
18794;DHT22;29610;49.022;12.114;2022-12-17T16:11:08;-4.30;99.90
18794;DHT22;29610;49.022;12.114;2022-12-17T16:13:38;-4.40;99.90
18794;DHT22;29610;49.022;12.114;2022-12-17T16:16:07;-4.50;99.90
18794;DHT22;29610;49.022;12.114;2022-12-17T16:18:37;-4.80;99.90
18794;DHT22;29610;49.022;12.114;2022-12-17T16:21:07;-4.90;99.90
18794;DHT22;29610;49.022;12.114;2022-12-17T16:23:36;-5.20;99.90
18794;DHT22;29610;49.022;12.114;2022-12-17T16:26:09;-5.40;99.90
18794;DHT22;29610;49.022;12.114;2022-12-17T16:28:40;-5.60;99.90
18794;DHT22;29610;49.022;12.114;2022-12-17T16:31:13;-5.60;99.90
18794;DHT22;29610;49.022;12.114;2022-12-17T16:33:43;-5.60;99.90
18794;DHT22;29610;49.022;12.114;2022-12-17T16:36:16;-5.70;99.90
18794;DHT22;29610;49.022;12.114;2022-12-17T16:38:48;-5.80;99.90
18794;DHT22;29610;49.022;12.114;2022-12-17T16:41:21;-5.90;99.90
18794;DHT22;29610;49.022;12.114;2022-12-17T16:43:50;-6.00;99.90
18794;DHT22;29610;49.022;12.114;2022-12-17T16:46:27;-6.10;99.90
18794;DHT22;29610;49.022;12.114;2022-12-17T16:49:01;-6.10;99.90
18794;DHT22;29610;49.022;12.114;2022-12-17T16:51:32;-6.20;99.90
18794;DHT22;29610;49.022;12.114;2022-12-17T16:54:04;-6.10;99.90
18794;DHT22;29610;49.022;12.114;2022-12-17T16:56:41;-6.20;99.90
18794;DHT22;29610;49.022;12.114;2022-12-17T16:59:12;-6.10;99.90
18794;DHT22;29610;49.022;12.114;2022-12-17T17:01:45;-6.00;99.90
18794;DHT22;29610;49.022;12.114;2022-12-17T17:04:16;-5.90;99.90
18794;DHT22;29610;49.022;12.114;2022-12-17T17:06:48;-6.00;99.90
18794;DHT22;29610;49.022;12.114;2022-12-17T17:09:19;-6.00;99.90
18794;DHT22;29610;49.022;12.114;2022-12-17T17:11:50;-6.00;99.90
18794;DHT22;29610;49.022;12.114;2022-12-17T17:14:22;-6.00;99.90